Time,TemperatureF,DewpointF,PressureIn,WindDirection,WindDirectionDegrees,WindSpeedMPH,WindSpeedGustMPH,Humidity,HourlyPrecipIn,Conditions,Clouds,dailyrainin,SolarRadiationWatts/m^2,SoftwareType,DateUTC
2013-08-18 00:03:00,-999.0,-99.9,-100.00,SE,126,1.0,3.0,-999,0.00,,,0.00,0.000000,,2013-08-18 04:03:00,
2013-08-18 00:13:00,60.0,57.0,-100.00,SE,126,1.0,3.0,90,0.00,,,0.00,0.000000,,2013-08-18 04:13:00,
2013-08-18 00:23:00,60.0,57.0,-100.00,SE,126,1.0,3.0,90,0.00,,,0.00,0.000000,,2013-08-18 04:23:00,
2013-08-18 00:53:00,60.0,58.0,-100.00,East,96,0.0,2.0,93,0.00,,,0.00,0.000000,,2013-08-18 04:53:00,
2013-08-18 01:02:00,60.0,58.0,-100.00,East,96,0.0,2.0,93,0.00,,,0.00,0.000000,,2013-08-18 05:02:00,
2013-08-18 01:12:00,60.0,58.0,-100.00,East,96,0.0,2.0,93,0.00,,,0.00,0.000000,,2013-08-18 05:12:00,
2013-08-18 01:22:00,60.0,58.0,-100.00,East,96,0.0,2.0,93,0.00,,,0.00,0.000000,,2013-08-18 05:22:00,
2013-08-18 01:52:00,57.0,56.0,-100.00,SE,131,0.0,2.0,96,0.00,,,0.00,0.000000,,2013-08-18 05:52:00,
2013-08-18 02:01:00,57.0,56.0,-100.00,SE,131,0.0,2.0,96,0.00,,,0.00,0.000000,,2013-08-18 06:01:00,
2013-08-18 02:11:00,57.0,56.0,-100.00,SE,131,0.0,2.0,96,0.00,,,0.00,0.000000,,2013-08-18 06:11:00,
2013-08-18 02:21:00,57.0,56.0,-100.00,SE,131,0.0,2.0,96,0.00,,,0.00,0.000000,,2013-08-18 06:21:00,
2013-08-18 02:52:00,57.0,56.0,-100.00,SE,131,1.0,2.0,98,0.00,,,0.00,0.000000,,2013-08-18 06:52:00,
2013-08-18 03:01:00,57.0,56.0,-100.00,SE,131,1.0,2.0,98,0.00,,,0.00,0.000000,,2013-08-18 07:01:00,
2013-08-18 03:11:00,57.0,56.0,-100.00,SE,131,1.0,2.0,98,0.00,,,0.00,0.000000,,2013-08-18 07:11:00,
2013-08-18 03:22:00,57.0,56.0,-100.00,SE,131,1.0,2.0,98,0.00,,,0.00,0.000000,,2013-08-18 07:22:00,
2013-08-18 03:52:00,56.0,55.0,-100.00,SE,129,0.0,3.0,97,0.00,,,0.00,0.000000,,2013-08-18 07:52:00,
2013-08-18 04:01:00,56.0,55.0,-100.00,SE,129,0.0,3.0,97,0.00,,,0.00,0.000000,,2013-08-18 08:01:00,
2013-08-18 04:12:00,56.0,55.0,-100.00,SE,129,0.0,3.0,97,0.00,,,0.00,0.000000,,2013-08-18 08:12:00,
2013-08-18 04:21:00,56.0,55.0,-100.00,SE,129,0.0,3.0,97,0.00,,,0.00,0.000000,,2013-08-18 08:21:00,
2013-08-18 04:52:00,56.0,55.0,-100.00,ESE,108,1.0,3.0,96,0.00,,,0.00,0.000000,,2013-08-18 08:52:00,
2013-08-18 05:02:00,56.0,55.0,-100.00,ESE,108,1.0,3.0,96,0.00,,,0.00,0.000000,,2013-08-18 09:02:00,
2013-08-18 05:11:00,56.0,55.0,-100.00,ESE,108,1.0,3.0,96,0.00,,,0.00,0.000000,,2013-08-18 09:11:00,
2013-08-18 05:21:00,56.0,55.0,-100.00,ESE,108,1.0,3.0,96,0.00,,,0.00,0.000000,,2013-08-18 09:21:00,
2013-08-18 05:53:00,54.0,53.0,-100.00,SE,130,0.0,2.0,97,0.00,,,0.00,0.000000,,2013-08-18 09:53:00,
2013-08-18 06:03:00,54.0,53.0,-100.00,SE,130,0.0,2.0,97,0.00,,,0.00,0.000000,,2013-08-18 10:03:00,
2013-08-18 06:13:00,54.0,53.0,-100.00,SE,130,0.0,2.0,97,0.00,,,0.00,0.000000,,2013-08-18 10:13:00,
2013-08-18 06:23:00,54.0,53.0,-100.00,SE,130,0.0,2.0,97,0.00,,,0.00,0.000000,,2013-08-18 10:23:00,
2013-08-18 06:52:00,53.0,52.0,-100.00,SSE,155,0.0,2.0,98,0.00,,,0.00,0.000000,,2013-08-18 10:52:00,
2013-08-18 07:02:00,53.0,52.0,-100.00,SSE,155,0.0,2.0,98,0.00,,,0.00,0.000000,,2013-08-18 11:02:00,
2013-08-18 07:11:00,53.0,52.0,-100.00,SSE,155,0.0,2.0,98,0.00,,,0.00,0.000000,,2013-08-18 11:11:00,
2013-08-18 07:22:00,53.0,52.0,-100.00,SSE,155,0.0,2.0,98,0.00,,,0.00,0.000000,,2013-08-18 11:22:00,
2013-08-18 07:52:00,54.0,53.0,-100.00,East,98,1.0,2.0,98,0.00,,,0.00,29.000000,,2013-08-18 11:52:00,
2013-08-18 08:01:00,54.0,53.0,-100.00,East,98,1.0,2.0,98,0.00,,,0.00,29.000000,,2013-08-18 12:01:00,
2013-08-18 08:11:00,54.0,53.0,-100.00,East,98,1.0,2.0,98,0.00,,,0.00,29.000000,,2013-08-18 12:11:00,
2013-08-18 08:21:00,54.0,53.0,-100.00,East,98,1.0,2.0,98,0.00,,,0.00,29.000000,,2013-08-18 12:21:00,
2013-08-18 08:52:00,59.0,57.0,-100.00,East,82,0.0,3.0,93,0.00,,,0.00,97.000000,,2013-08-18 12:52:00,
2013-08-18 09:01:00,59.0,57.0,-100.00,East,82,0.0,3.0,93,0.00,,,0.00,97.000000,,2013-08-18 13:01:00,
2013-08-18 09:11:00,59.0,57.0,-100.00,East,82,0.0,3.0,93,0.00,,,0.00,97.000000,,2013-08-18 13:11:00,
2013-08-18 09:21:00,59.0,57.0,-100.00,East,82,0.0,3.0,93,0.00,,,0.00,97.000000,,2013-08-18 13:21:00,
2013-08-18 10:21:00,71.0,62.0,-100.00,WSW,246,2.0,3.0,72,0.00,,,0.00,292.000000,,2013-08-18 14:21:00,
2013-08-18 10:53:00,75.0,62.0,-100.00,SW,215,2.0,4.0,63,0.00,,,0.00,420.000000,,2013-08-18 14:53:00,
2013-08-18 11:01:00,75.0,62.0,-100.00,SW,215,2.0,4.0,63,0.00,,,0.00,420.000000,,2013-08-18 15:01:00,
2013-08-18 11:12:00,75.0,62.0,-100.00,SW,215,2.0,4.0,63,0.00,,,0.00,420.000000,,2013-08-18 15:12:00,
2013-08-18 11:22:00,75.0,62.0,-100.00,SW,215,2.0,4.0,63,0.00,,,0.00,420.000000,,2013-08-18 15:22:00,
2013-08-18 11:54:00,77.0,56.0,-100.00,SW,230,3.0,5.0,49,0.00,,,0.00,471.000000,,2013-08-18 15:54:00,
2013-08-18 12:03:00,77.0,56.0,-100.00,SW,230,3.0,5.0,49,0.00,,,0.00,471.000000,,2013-08-18 16:03:00,
2013-08-18 12:13:00,77.0,56.0,-100.00,SW,230,3.0,5.0,49,0.00,,,0.00,471.000000,,2013-08-18 16:13:00,
2013-08-18 12:23:00,77.0,56.0,-100.00,SW,230,3.0,5.0,49,0.00,,,0.00,471.000000,,2013-08-18 16:23:00,
2013-08-18 12:52:00,78.0,56.0,-100.00,WSW,258,4.0,6.0,47,0.00,,,0.00,568.000000,,2013-08-18 16:52:00,
2013-08-18 13:02:00,78.0,56.0,-100.00,WSW,258,4.0,6.0,47,0.00,,,0.00,568.000000,,2013-08-18 17:02:00,
2013-08-18 13:13:00,78.0,56.0,-100.00,WSW,258,4.0,6.0,47,0.00,,,0.00,568.000000,,2013-08-18 17:13:00,
2013-08-18 13:23:00,78.0,56.0,-100.00,WSW,258,4.0,6.0,47,0.00,,,0.00,568.000000,,2013-08-18 17:23:00,
2013-08-18 13:52:00,81.0,58.0,-100.00,North,4,3.0,5.0,45,0.00,,,0.00,659.000000,,2013-08-18 17:52:00,
2013-08-18 14:02:00,81.0,58.0,-100.00,North,4,3.0,5.0,45,0.00,,,0.00,659.000000,,2013-08-18 18:02:00,
2013-08-18 14:12:00,81.0,58.0,-100.00,North,4,3.0,5.0,45,0.00,,,0.00,659.000000,,2013-08-18 18:12:00,
2013-08-18 14:22:00,81.0,58.0,-100.00,North,4,3.0,5.0,45,0.00,,,0.00,659.000000,,2013-08-18 18:22:00,
2013-08-18 14:52:00,82.0,57.0,-100.00,South,191,3.0,8.0,42,0.00,,,0.00,717.000000,,2013-08-18 18:52:00,
2013-08-18 15:01:00,82.0,57.0,-100.00,South,191,3.0,8.0,42,0.00,,,0.00,717.000000,,2013-08-18 19:01:00,
2013-08-18 15:11:00,82.0,57.0,-100.00,South,191,3.0,8.0,42,0.00,,,0.00,717.000000,,2013-08-18 19:11:00,
2013-08-18 15:22:00,82.0,57.0,-100.00,South,191,3.0,8.0,42,0.00,,,0.00,717.000000,,2013-08-18 19:22:00,
2013-08-18 15:52:00,82.0,59.0,-100.00,WNW,303,2.0,7.0,45,0.00,,,0.00,563.000000,,2013-08-18 19:52:00,
2013-08-18 16:02:00,82.0,59.0,-100.00,WNW,303,2.0,7.0,45,0.00,,,0.00,563.000000,,2013-08-18 20:02:00,
2013-08-18 16:12:00,82.0,59.0,-100.00,WNW,303,2.0,7.0,45,0.00,,,0.00,563.000000,,2013-08-18 20:12:00,
2013-08-18 16:22:00,82.0,59.0,-100.00,WNW,303,2.0,7.0,45,0.00,,,0.00,563.000000,,2013-08-18 20:22:00,
2013-08-18 16:52:00,81.0,56.0,-100.00,NW,316,2.0,6.0,43,0.00,,,0.00,451.000000,,2013-08-18 20:52:00,
2013-08-18 17:01:00,81.0,56.0,-100.00,NW,316,2.0,6.0,43,0.00,,,0.00,451.000000,,2013-08-18 21:01:00,
2013-08-18 17:11:00,81.0,56.0,-100.00,NW,316,2.0,6.0,43,0.00,,,0.00,451.000000,,2013-08-18 21:11:00,
2013-08-18 17:22:00,81.0,56.0,-100.00,NW,316,2.0,6.0,43,0.00,,,0.00,451.000000,,2013-08-18 21:22:00,
2013-08-18 17:53:00,82.0,56.0,-100.00,SSW,212,3.0,5.0,41,0.00,,,0.00,447.000000,,2013-08-18 21:53:00,
2013-08-18 18:04:00,82.0,56.0,-100.00,SSW,212,3.0,5.0,41,0.00,,,0.00,447.000000,,2013-08-18 22:04:00,
2013-08-18 18:13:00,82.0,56.0,-100.00,SSW,212,3.0,5.0,41,0.00,,,0.00,447.000000,,2013-08-18 22:13:00,
2013-08-18 18:23:00,82.0,56.0,-100.00,SSW,212,3.0,5.0,41,0.00,,,0.00,447.000000,,2013-08-18 22:23:00,
2013-08-18 18:52:00,77.0,63.0,-100.00,NNE,17,5.0,11.0,63,0.00,,,0.00,286.000000,,2013-08-18 22:52:00,
2013-08-18 19:02:00,77.0,63.0,-100.00,NNE,17,5.0,11.0,63,0.00,,,0.00,286.000000,,2013-08-18 23:02:00,
2013-08-18 19:11:00,77.0,63.0,-100.00,NNE,17,5.0,11.0,63,0.00,,,0.00,286.000000,,2013-08-18 23:11:00,
2013-08-18 19:22:00,77.0,63.0,-100.00,NNE,17,5.0,11.0,63,0.00,,,0.00,286.000000,,2013-08-18 23:22:00,
2013-08-18 19:52:00,75.0,61.0,-100.00,NNE,16,4.0,9.0,62,0.00,,,0.00,180.000000,,2013-08-18 23:52:00,
2013-08-18 20:03:00,75.0,61.0,-100.00,NNE,16,4.0,9.0,62,0.00,,,0.00,180.000000,,2013-08-19 00:03:00,
2013-08-18 20:12:00,75.0,61.0,-100.00,NNE,16,4.0,9.0,62,0.00,,,0.00,180.000000,,2013-08-19 00:12:00,
2013-08-18 20:21:00,75.0,61.0,-100.00,NNE,16,4.0,9.0,62,0.00,,,0.00,180.000000,,2013-08-19 00:21:00,
2013-08-18 20:52:00,71.0,60.0,-100.00,East,85,2.0,5.0,69,0.00,,,0.00,32.000000,,2013-08-19 00:52:00,
2013-08-18 21:02:00,71.0,60.0,-100.00,East,85,2.0,5.0,69,0.00,,,0.00,32.000000,,2013-08-19 01:02:00,
2013-08-18 21:12:00,71.0,60.0,-100.00,East,85,2.0,5.0,69,0.00,,,0.00,32.000000,,2013-08-19 01:12:00,
2013-08-18 21:22:00,71.0,60.0,-100.00,East,85,2.0,5.0,69,0.00,,,0.00,32.000000,,2013-08-19 01:22:00,
2013-08-18 21:52:00,65.0,61.0,-100.00,SSW,194,0.0,2.0,86,0.00,,,0.00,0.000000,,2013-08-19 01:52:00,
2013-08-18 22:06:00,65.0,61.0,-100.00,SSW,194,0.0,2.0,86,0.00,,,0.00,0.000000,,2013-08-19 02:06:00,
2013-08-18 22:11:00,65.0,61.0,-100.00,SSW,194,0.0,2.0,86,0.00,,,0.00,0.000000,,2013-08-19 02:11:00,
2013-08-18 22:22:00,65.0,61.0,-100.00,SSW,194,0.0,2.0,86,0.00,,,0.00,0.000000,,2013-08-19 02:22:00,
2013-08-18 22:52:00,62.0,60.0,-100.00,SSW,195,0.0,2.0,94,0.00,,,0.00,0.000000,,2013-08-19 02:52:00,
2013-08-18 23:01:00,62.0,60.0,-100.00,SSW,195,0.0,2.0,94,0.00,,,0.00,0.000000,,2013-08-19 03:01:00,
2013-08-18 23:11:00,62.0,60.0,-100.00,SSW,195,0.0,2.0,94,0.00,,,0.00,0.000000,,2013-08-19 03:11:00,
2013-08-18 23:21:00,62.0,60.0,-100.00,SSW,195,0.0,2.0,94,0.00,,,0.00,0.000000,,2013-08-19 03:21:00,
2013-08-18 23:53:00,61.0,60.0,-100.00,South,191,0.0,0.0,96,0.00,,,0.00,0.000000,,2013-08-19 03:53:00,